createdAt,value
2018-09-05T00:02:08.293Z,28.67
2018-09-05T00:07:01.597Z,28.00
2018-09-05T00:11:55.691Z,28.62
2018-09-05T00:16:49.044Z,26.52
2018-09-05T00:21:42.398Z,28.52
2018-09-05T00:26:35.692Z,28.02
2018-09-05T00:31:29.054Z,29.20
2018-09-05T00:36:22.397Z,30.57
2018-09-05T00:41:15.695Z,29.10
2018-09-05T00:46:08.982Z,28.30
2018-09-05T00:51:02.241Z,29.10
2018-09-05T00:55:55.526Z,27.25
2018-09-05T01:00:49.872Z,28.27
2018-09-05T01:05:43.174Z,28.73
2018-09-05T01:10:36.524Z,29.10
2018-09-05T01:15:30.116Z,27.67
2018-09-05T01:20:23.427Z,28.42
2018-09-05T01:25:16.666Z,27.90
2018-09-05T01:30:09.996Z,25.43
2018-09-05T01:35:03.361Z,26.80
2018-09-05T01:39:56.694Z,26.35
2018-09-05T01:44:50.106Z,27.62
2018-09-05T01:49:43.472Z,26.85
2018-09-05T01:54:36.847Z,29.60
2018-09-05T01:59:30.186Z,28.27
2018-09-05T02:04:23.527Z,28.92
2018-09-05T02:09:16.872Z,26.97
2018-09-05T02:14:10.819Z,28.67
2018-09-05T02:19:04.861Z,30.23
2018-09-05T02:23:58.151Z,28.32
2018-09-05T02:28:51.613Z,26.95
2018-09-05T02:33:44.907Z,29.15
2018-09-05T02:38:38.213Z,27.98
2018-09-05T02:43:37.401Z,27.27
2018-09-05T02:48:30.784Z,27.95
2018-09-05T02:53:24.073Z,29.07
2018-09-05T02:58:17.431Z,27.98
2018-09-05T03:03:10.777Z,29.12
2018-09-05T03:08:04.108Z,26.85
2018-09-05T03:12:57.417Z,25.60
2018-09-05T03:18:20.160Z,24.87
2018-09-05T03:23:13.486Z,27.00
2018-09-05T03:28:07.476Z,28.42
2018-09-05T03:33:01.416Z,24.05
2018-09-05T03:37:54.741Z,26.87
2018-09-05T03:42:48.047Z,26.40
2018-09-05T03:47:41.375Z,26.12
2018-09-05T03:52:34.653Z,26.17
2018-09-05T03:57:28.005Z,27.48
2018-09-05T04:02:21.302Z,27.27
2018-09-05T04:07:14.695Z,25.97
2018-09-05T04:12:08.029Z,25.72
2018-09-05T04:17:01.261Z,25.37
2018-09-05T04:21:54.537Z,23.87
2018-09-05T04:26:47.838Z,23.90
2018-09-05T04:31:41.147Z,23.50
2018-09-05T04:36:34.465Z,21.75
2018-09-05T04:41:27.800Z,20.97
2018-09-05T04:46:21.139Z,20.50
2018-09-05T04:51:14.505Z,20.72
2018-09-05T04:56:07.859Z,21.02
2018-09-05T05:01:01.157Z,20.95
2018-09-05T05:05:54.598Z,20.48
2018-09-05T05:10:47.989Z,20.75
2018-09-05T05:15:41.295Z,20.72
2018-09-05T05:20:35.120Z,20.00
2018-09-05T05:25:28.452Z,20.35
2018-09-05T05:30:21.745Z,20.08
2018-09-05T05:35:15.055Z,18.80
2018-09-05T05:40:08.431Z,19.12
2018-09-05T05:45:02.171Z,19.55
2018-09-05T05:49:55.584Z,19.60
2018-09-05T05:54:49.121Z,19.23
2018-09-05T05:59:42.411Z,19.85
2018-09-05T06:04:35.919Z,20.08
2018-09-05T06:09:29.271Z,19.90
2018-09-05T06:14:22.585Z,20.25
2018-09-05T06:19:16.323Z,19.70
2018-09-05T06:24:09.711Z,20.92
2018-09-05T06:29:03.346Z,21.40
2018-09-05T06:33:56.798Z,21.95
2018-09-05T06:38:50.846Z,22.20
2018-09-05T06:43:44.109Z,22.20
2018-09-05T06:48:37.617Z,23.45
2018-09-05T06:53:31.940Z,26.27
2018-09-05T06:58:25.294Z,24.02
2018-09-05T07:03:19.730Z,25.52
2018-09-05T07:08:13.088Z,25.55
2018-09-05T07:13:06.387Z,28.30
2018-09-05T07:18:00.274Z,27.75
2018-09-05T07:22:53.570Z,27.45
2018-09-05T07:27:47.705Z,27.93
2018-09-05T07:32:41.771Z,29.32
2018-09-05T07:37:35.075Z,28.27
2018-09-05T07:42:28.385Z,33.30
2018-09-05T07:47:21.779Z,30.10
2018-09-05T07:52:15.091Z,32.30
2018-09-05T07:57:08.458Z,30.92
2018-09-05T08:02:01.914Z,30.08
2018-09-05T08:06:55.220Z,32.05
2018-09-05T08:11:48.542Z,33.60
2018-09-05T08:16:41.804Z,33.63
2018-09-05T08:21:35.089Z,30.15
2018-09-05T08:26:28.391Z,33.70
2018-09-05T08:31:21.701Z,33.60
2018-09-05T08:36:15.406Z,32.50
2018-09-05T08:41:09.922Z,35.65
2018-09-05T08:46:03.699Z,35.48
2018-09-05T08:56:40.896Z,35.43
2018-09-05T09:01:37.696Z,32.95
2018-09-05T09:06:31.038Z,31.82
2018-09-05T09:11:24.331Z,33.48
2018-09-05T09:16:18.467Z,33.83
2018-09-05T09:21:11.792Z,31.05
2018-09-05T09:26:05.375Z,30.08
2018-09-05T09:30:58.688Z,29.30
2018-09-05T09:35:52.032Z,28.50
2018-09-05T09:40:46.005Z,27.82
2018-09-05T09:45:39.325Z,28.80
2018-09-05T09:50:32.700Z,27.75
2018-09-05T09:55:26.076Z,28.77
2018-09-05T10:00:24.835Z,29.02
2018-09-05T10:05:23.873Z,24.10
2018-09-05T10:10:23.239Z,30.08
2018-09-05T10:15:21.992Z,28.87
2018-09-05T10:20:15.366Z,28.32
2018-09-05T10:25:08.661Z,24.43
2018-09-05T10:30:01.999Z,27.87
2018-09-05T10:34:56.764Z,26.90
2018-09-05T10:39:51.099Z,26.97
2018-09-05T10:44:44.385Z,25.90
2018-09-05T10:49:38.080Z,25.85
2018-09-05T10:54:31.388Z,29.95
2018-09-05T10:59:24.670Z,25.85
2018-09-05T11:04:18.171Z,26.17
2018-09-05T11:09:12.321Z,24.60
2018-09-05T11:14:06.133Z,24.55
2018-09-05T11:18:59.425Z,23.15
2018-09-05T11:23:52.789Z,22.40
2018-09-05T11:28:46.127Z,23.30
2018-09-05T11:33:39.611Z,21.77
2018-09-05T11:38:32.957Z,22.25
2018-09-05T11:43:26.560Z,16.82
2018-09-05T11:48:19.880Z,17.90
2018-09-05T11:53:13.489Z,19.37
2018-09-05T11:58:06.936Z,16.50
2018-09-05T12:03:00.313Z,16.90
2018-09-05T12:07:54.150Z,15.48
2018-09-05T12:12:47.408Z,16.82
2018-09-05T12:17:40.863Z,13.70
2018-09-05T12:22:34.398Z,14.28
2018-09-05T12:27:27.871Z,15.13
2018-09-05T12:32:22.347Z,14.93
2018-09-05T12:37:17.445Z,20.17
2018-09-05T12:42:11.340Z,13.93
2018-09-05T12:47:04.805Z,15.85
2018-09-05T12:51:58.781Z,17.73
2018-09-05T12:56:52.105Z,15.35
2018-09-05T13:01:45.379Z,12.60
2018-09-05T13:06:39.869Z,13.62
2018-09-05T13:11:33.240Z,12.80
2018-09-05T13:16:26.995Z,12.70
2018-09-05T13:21:20.306Z,12.18
2018-09-05T13:26:13.663Z,13.50
2018-09-05T13:31:07.119Z,15.10
2018-09-05T13:36:00.624Z,14.00
2018-09-05T13:40:54.167Z,14.25
2018-09-05T13:45:47.501Z,13.75
2018-09-05T13:50:40.872Z,13.22
2018-09-05T13:55:34.174Z,13.15
2018-09-05T14:00:27.485Z,12.58
2018-09-05T14:05:20.767Z,12.53
2018-09-05T14:10:15.526Z,12.43
2018-09-05T14:15:09.080Z,13.03
2018-09-05T14:20:04.989Z,12.82
2018-09-05T14:25:01.094Z,13.40
2018-09-05T14:29:54.469Z,12.35
2018-09-05T14:34:47.852Z,11.97
2018-09-05T14:39:41.173Z,12.53
2018-09-05T14:44:34.607Z,13.30
2018-09-05T14:49:27.861Z,11.48
2018-09-05T14:54:21.224Z,13.15
2018-09-05T14:59:14.486Z,12.28
2018-09-05T15:04:07.891Z,11.30
2018-09-05T15:09:01.206Z,12.75
2018-09-05T15:13:54.784Z,10.90
2018-09-05T15:18:48.119Z,11.28
2018-09-05T15:23:41.457Z,11.50
2018-09-05T15:28:34.928Z,10.60
2018-09-05T15:33:28.245Z,10.25
2018-09-05T15:38:21.617Z,10.68
2018-09-05T15:43:14.975Z,10.60
2018-09-05T15:48:08.289Z,9.70
2018-09-05T15:53:01.811Z,9.93
2018-09-05T15:57:55.162Z,11.05
2018-09-05T16:02:48.705Z,10.43
2018-09-05T16:07:42.137Z,10.55
2018-09-05T16:12:35.455Z,10.53
2018-09-05T16:17:28.778Z,10.40
2018-09-05T16:22:22.110Z,11.08
2018-09-05T16:27:16.319Z,9.95
2018-09-05T16:32:09.609Z,10.38
2018-09-05T16:37:02.944Z,10.50
2018-09-05T16:41:58.076Z,10.10
2018-09-05T16:46:51.500Z,10.18
2018-09-05T16:51:44.917Z,12.03
2018-09-05T16:56:38.296Z,9.88
2018-09-05T17:01:31.663Z,10.45
2018-09-05T17:06:25.078Z,11.03
2018-09-05T17:11:18.905Z,10.43
2018-09-05T17:16:12.330Z,10.40
2018-09-05T17:21:05.714Z,10.98
2018-09-05T17:26:00.174Z,10.00
2018-09-05T17:30:53.567Z,9.70
2018-09-05T17:35:46.981Z,10.60
2018-09-05T17:40:40.535Z,10.32
2018-09-05T17:45:33.981Z,10.25
2018-09-05T17:50:28.703Z,9.25
2018-09-05T17:55:22.024Z,9.15
2018-09-05T18:00:15.494Z,9.43
2018-09-05T18:05:08.915Z,9.58
2018-09-05T18:10:02.357Z,8.93
2018-09-05T18:14:55.691Z,8.85
2018-09-05T18:19:49.079Z,9.33
2018-09-05T18:24:42.685Z,9.78
2018-09-05T18:29:36.938Z,11.33
2018-09-05T18:34:30.266Z,12.13
2018-09-05T18:39:24.418Z,14.23
2018-09-05T18:44:17.746Z,14.47
2018-09-05T18:49:11.110Z,13.78
2018-09-05T18:54:04.450Z,14.65
2018-09-05T18:58:58.649Z,14.50
2018-09-05T19:03:51.935Z,14.73
2018-09-05T19:08:45.607Z,17.48
2018-09-05T19:13:39.004Z,17.92
2018-09-05T19:18:33.041Z,16.62
2018-09-05T19:23:26.372Z,16.73
2018-09-05T19:28:19.670Z,19.25
2018-09-05T19:33:13.120Z,18.42
2018-09-05T19:38:06.579Z,19.45
2018-09-05T19:42:59.932Z,18.23
2018-09-05T19:47:53.307Z,18.05
2018-09-05T19:52:46.642Z,17.40
2018-09-05T19:57:39.997Z,20.15
2018-09-05T20:02:33.342Z,20.32
2018-09-05T20:07:26.690Z,20.15
2018-09-05T20:12:20.963Z,20.15
2018-09-05T20:17:15.007Z,19.48
2018-09-05T20:22:10.283Z,19.48
2018-09-05T20:27:03.755Z,19.30
2018-09-05T20:31:57.060Z,19.40
2018-09-05T20:36:51.347Z,19.15
2018-09-05T20:41:45.351Z,22.35
2018-09-05T20:46:39.082Z,20.02
2018-09-05T20:51:32.413Z,19.30
2018-09-05T20:56:25.775Z,19.67
2018-09-05T21:01:19.205Z,20.05
2018-09-05T21:06:12.503Z,21.42
2018-09-05T21:11:05.862Z,21.42
2018-09-05T21:15:59.220Z,23.30
2018-09-05T21:20:52.653Z,26.77
2018-09-05T21:25:45.956Z,27.77
2018-09-05T21:30:39.271Z,26.62
2018-09-05T21:35:32.999Z,24.40
2018-09-05T21:40:26.406Z,25.10
2018-09-05T21:45:19.775Z,24.47
2018-09-05T21:50:13.735Z,23.70
2018-09-05T21:55:07.169Z,24.77
2018-09-05T22:00:00.595Z,24.15
2018-09-05T22:04:54.327Z,25.15
2018-09-05T22:09:47.677Z,24.07
2018-09-05T22:14:41.611Z,27.48
2018-09-05T22:19:34.942Z,27.85
2018-09-05T22:24:28.232Z,27.32
2018-09-05T22:29:21.520Z,27.35
2018-09-05T22:34:14.880Z,25.37
2018-09-05T22:39:10.174Z,24.98
2018-09-05T22:44:20.389Z,23.10
2018-09-05T22:52:37.743Z,25.02
2018-09-05T22:59:47.159Z,26.75
2018-09-05T23:04:59.038Z,30.37
2018-09-05T23:10:09.534Z,30.43
2018-09-05T23:15:19.859Z,30.77
2018-09-05T23:21:25.366Z,29.72
2018-09-05T23:26:19.322Z,30.05
2018-09-05T23:31:12.723Z,31.87
2018-09-05T23:36:06.135Z,31.30
2018-09-05T23:40:59.388Z,30.55
2018-09-05T23:45:52.702Z,30.92
2018-09-05T23:50:46.155Z,31.27
2018-09-05T23:55:39.495Z,30.75
